sensor_id;sensor_type;location;lat;lon;timestamp;temperature;humidity
11152;DHT22;5630;49.342;10.802;2023-12-07T00:00:15;2.00;99.90
11152;DHT22;5630;49.342;10.802;2023-12-07T00:02:41;1.90;99.90
11152;DHT22;5630;49.342;10.802;2023-12-07T00:05:07;2.00;99.90
11152;DHT22;5630;49.342;10.802;2023-12-07T00:07:32;2.00;99.90
11152;DHT22;5630;49.342;10.802;2023-12-07T00:09:58;2.00;99.90
11152;DHT22;5630;49.342;10.802;2023-12-07T00:12:23;2.00;99.90
11152;DHT22;5630;49.342;10.802;2023-12-07T00:14:49;2.00;99.90
11152;DHT22;5630;49.342;10.802;2023-12-07T00:17:14;2.00;99.90
11152;DHT22;5630;49.342;10.802;2023-12-07T00:19:40;2.00;99.90
11152;DHT22;5630;49.342;10.802;2023-12-07T00:22:05;2.00;99.90
11152;DHT22;5630;49.342;10.802;2023-12-07T00:24:31;2.00;99.90
11152;DHT22;5630;49.342;10.802;2023-12-07T00:26:56;2.00;99.90
11152;DHT22;5630;49.342;10.802;2023-12-07T00:29:22;2.00;99.90
11152;DHT22;5630;49.342;10.802;2023-12-07T00:31:47;2.00;99.90
11152;DHT22;5630;49.342;10.802;2023-12-07T00:34:13;2.00;99.90
11152;DHT22;5630;49.342;10.802;2023-12-07T00:36:38;2.10;99.90
11152;DHT22;5630;49.342;10.802;2023-12-07T00:39:07;2.00;99.90
11152;DHT22;5630;49.342;10.802;2023-12-07T00:41:32;2.00;99.90
11152;DHT22;5630;49.342;10.802;2023-12-07T00:43:58;2.10;99.90
11152;DHT22;5630;49.342;10.802;2023-12-07T00:46:23;2.10;99.90
11152;DHT22;5630;49.342;10.802;2023-12-07T00:48:49;2.10;99.90
11152;DHT22;5630;49.342;10.802;2023-12-07T00:51:14;2.10;99.90
11152;DHT22;5630;49.342;10.802;2023-12-07T00:53:41;2.10;99.90
11152;DHT22;5630;49.342;10.802;2023-12-07T00:56:07;2.10;99.90
11152;DHT22;5630;49.342;10.802;2023-12-07T00:58:32;2.10;99.90
11152;DHT22;5630;49.342;10.802;2023-12-07T01:00:58;2.10;99.90
11152;DHT22;5630;49.342;10.802;2023-12-07T01:03:23;2.10;99.90
11152;DHT22;5630;49.342;10.802;2023-12-07T01:05:49;2.00;99.90
11152;DHT22;5630;49.342;10.802;2023-12-07T01:08:14;2.10;99.90
11152;DHT22;5630;49.342;10.802;2023-12-07T01:10:40;2.10;99.90
11152;DHT22;5630;49.342;10.802;2023-12-07T01:13:05;2.00;99.90
11152;DHT22;5630;49.342;10.802;2023-12-07T01:15:31;2.00;99.90
11152;DHT22;5630;49.342;10.802;2023-12-07T01:17:56;2.00;99.90
11152;DHT22;5630;49.342;10.802;2023-12-07T01:20:22;2.00;99.90
11152;DHT22;5630;49.342;10.802;2023-12-07T01:22:47;2.00;99.90
11152;DHT22;5630;49.342;10.802;2023-12-07T01:25:13;2.00;99.90
11152;DHT22;5630;49.342;10.802;2023-12-07T01:27:45;2.00;99.90
11152;DHT22;5630;49.342;10.802;2023-12-07T01:30:10;2.00;99.90
11152;DHT22;5630;49.342;10.802;2023-12-07T01:32:36;2.00;99.90
11152;DHT22;5630;49.342;10.802;2023-12-07T01:35:02;2.00;99.90
11152;DHT22;5630;49.342;10.802;2023-12-07T01:37:28;2.00;99.90
11152;DHT22;5630;49.342;10.802;2023-12-07T01:39:54;2.00;99.90
11152;DHT22;5630;49.342;10.802;2023-12-07T01:42:20;2.00;99.90
11152;DHT22;5630;49.342;10.802;2023-12-07T01:44:45;1.90;99.90
11152;DHT22;5630;49.342;10.802;2023-12-07T01:47:11;2.00;99.90
11152;DHT22;5630;49.342;10.802;2023-12-07T01:49:37;2.00;99.90
11152;DHT22;5630;49.342;10.802;2023-12-07T01:52:05;1.90;99.90
11152;DHT22;5630;49.342;10.802;2023-12-07T01:54:31;1.90;99.90
11152;DHT22;5630;49.342;10.802;2023-12-07T01:56:57;1.90;99.90
11152;DHT22;5630;49.342;10.802;2023-12-07T01:59:23;1.90;99.90
11152;DHT22;5630;49.342;10.802;2023-12-07T02:01:49;1.90;99.90
11152;DHT22;5630;49.342;10.802;2023-12-07T02:04:16;2.00;99.90
11152;DHT22;5630;49.342;10.802;2023-12-07T02:06:41;1.90;99.90
11152;DHT22;5630;49.342;10.802;2023-12-07T02:09:07;1.90;99.90
11152;DHT22;5630;49.342;10.802;2023-12-07T02:11:34;1.90;99.90
11152;DHT22;5630;49.342;10.802;2023-12-07T02:13:59;1.90;99.90
11152;DHT22;5630;49.342;10.802;2023-12-07T02:16:40;1.90;99.90
11152;DHT22;5630;49.342;10.802;2023-12-07T02:21:49;2.00;99.90
11152;DHT22;5630;49.342;10.802;2023-12-07T02:24:20;1.90;99.90
11152;DHT22;5630;49.342;10.802;2023-12-07T02:26:46;2.00;99.90
11152;DHT22;5630;49.342;10.802;2023-12-07T02:29:12;2.00;99.90
11152;DHT22;5630;49.342;10.802;2023-12-07T02:31:37;2.00;99.90
11152;DHT22;5630;49.342;10.802;2023-12-07T02:34:03;2.00;99.90
11152;DHT22;5630;49.342;10.802;2023-12-07T02:36:30;2.00;99.90
11152;DHT22;5630;49.342;10.802;2023-12-07T02:38:58;2.00;99.90
11152;DHT22;5630;49.342;10.802;2023-12-07T02:41:26;2.00;99.90
11152;DHT22;5630;49.342;10.802;2023-12-07T02:43:53;2.00;99.90
11152;DHT22;5630;49.342;10.802;2023-12-07T02:46:19;2.10;99.90
11152;DHT22;5630;49.342;10.802;2023-12-07T02:48:45;2.00;99.90
11152;DHT22;5630;49.342;10.802;2023-12-07T02:51:10;2.00;99.90
11152;DHT22;5630;49.342;10.802;2023-12-07T02:53:36;2.00;99.90
11152;DHT22;5630;49.342;10.802;2023-12-07T02:56:01;2.00;99.90
11152;DHT22;5630;49.342;10.802;2023-12-07T02:58:27;2.10;99.90
11152;DHT22;5630;49.342;10.802;2023-12-07T03:00:53;2.10;99.90
11152;DHT22;5630;49.342;10.802;2023-12-07T03:03:18;2.10;99.90
11152;DHT22;5630;49.342;10.802;2023-12-07T03:05:44;2.10;99.90
11152;DHT22;5630;49.342;10.802;2023-12-07T03:08:09;2.10;99.90
11152;DHT22;5630;49.342;10.802;2023-12-07T03:10:35;2.10;99.90
11152;DHT22;5630;49.342;10.802;2023-12-07T03:13:00;2.10;99.90
11152;DHT22;5630;49.342;10.802;2023-12-07T03:15:26;2.10;99.90
11152;DHT22;5630;49.342;10.802;2023-12-07T03:17:51;2.20;99.90
11152;DHT22;5630;49.342;10.802;2023-12-07T03:20:17;2.10;99.90
11152;DHT22;5630;49.342;10.802;2023-12-07T03:22:43;2.10;99.90
11152;DHT22;5630;49.342;10.802;2023-12-07T03:25:09;2.10;99.90
11152;DHT22;5630;49.342;10.802;2023-12-07T03:27:35;2.20;99.90
11152;DHT22;5630;49.342;10.802;2023-12-07T03:30:01;2.10;99.90
11152;DHT22;5630;49.342;10.802;2023-12-07T03:32:26;2.10;99.90
11152;DHT22;5630;49.342;10.802;2023-12-07T03:34:52;2.10;99.90
11152;DHT22;5630;49.342;10.802;2023-12-07T03:37:17;2.10;99.90
11152;DHT22;5630;49.342;10.802;2023-12-07T03:39:43;2.10;99.90
11152;DHT22;5630;49.342;10.802;2023-12-07T03:42:08;2.10;99.90
11152;DHT22;5630;49.342;10.802;2023-12-07T03:44:34;2.10;99.90
11152;DHT22;5630;49.342;10.802;2023-12-07T03:47:01;2.10;99.90
11152;DHT22;5630;49.342;10.802;2023-12-07T03:49:26;2.10;99.90
11152;DHT22;5630;49.342;10.802;2023-12-07T03:51:52;2.10;99.90
11152;DHT22;5630;49.342;10.802;2023-12-07T03:54:17;2.00;99.90
11152;DHT22;5630;49.342;10.802;2023-12-07T03:56:43;2.00;99.90
11152;DHT22;5630;49.342;10.802;2023-12-07T03:59:08;2.00;99.90
11152;DHT22;5630;49.342;10.802;2023-12-07T04:01:34;2.00;99.90
11152;DHT22;5630;49.342;10.802;2023-12-07T04:04:00;2.00;99.90
11152;DHT22;5630;49.342;10.802;2023-12-07T04:06:26;2.00;99.90
11152;DHT22;5630;49.342;10.802;2023-12-07T04:08:52;1.90;99.90
11152;DHT22;5630;49.342;10.802;2023-12-07T04:11:18;1.90;99.90
11152;DHT22;5630;49.342;10.802;2023-12-07T04:13:44;1.90;99.90
11152;DHT22;5630;49.342;10.802;2023-12-07T04:16:10;1.90;99.90
11152;DHT22;5630;49.342;10.802;2023-12-07T04:18:36;1.80;99.90
11152;DHT22;5630;49.342;10.802;2023-12-07T04:21:02;1.90;99.90
11152;DHT22;5630;49.342;10.802;2023-12-07T04:23:28;1.90;99.90
11152;DHT22;5630;49.342;10.802;2023-12-07T04:25:53;1.90;99.90
11152;DHT22;5630;49.342;10.802;2023-12-07T04:28:19;1.90;99.90
11152;DHT22;5630;49.342;10.802;2023-12-07T04:30:45;1.90;99.90
11152;DHT22;5630;49.342;10.802;2023-12-07T04:33:10;1.90;99.90
11152;DHT22;5630;49.342;10.802;2023-12-07T04:35:36;2.00;99.90
11152;DHT22;5630;49.342;10.802;2023-12-07T04:38:02;1.90;99.90
11152;DHT22;5630;49.342;10.802;2023-12-07T04:40:27;2.00;99.90
11152;DHT22;5630;49.342;10.802;2023-12-07T04:42:53;2.00;99.90
11152;DHT22;5630;49.342;10.802;2023-12-07T04:45:18;2.00;99.90
11152;DHT22;5630;49.342;10.802;2023-12-07T04:47:45;2.00;99.90
11152;DHT22;5630;49.342;10.802;2023-12-07T04:50:11;2.00;99.90
11152;DHT22;5630;49.342;10.802;2023-12-07T04:52:36;2.00;99.90
11152;DHT22;5630;49.342;10.802;2023-12-07T04:55:02;2.00;99.90
11152;DHT22;5630;49.342;10.802;2023-12-07T04:57:28;2.00;99.90
11152;DHT22;5630;49.342;10.802;2023-12-07T04:59:53;2.00;99.90
11152;DHT22;5630;49.342;10.802;2023-12-07T05:02:19;2.00;99.90
11152;DHT22;5630;49.342;10.802;2023-12-07T05:04:45;1.90;99.90
11152;DHT22;5630;49.342;10.802;2023-12-07T05:07:14;2.00;99.90
11152;DHT22;5630;49.342;10.802;2023-12-07T05:09:40;2.00;99.90
11152;DHT22;5630;49.342;10.802;2023-12-07T05:12:06;1.90;99.90
11152;DHT22;5630;49.342;10.802;2023-12-07T05:14:32;1.90;99.90
11152;DHT22;5630;49.342;10.802;2023-12-07T05:16:58;1.90;99.90
11152;DHT22;5630;49.342;10.802;2023-12-07T05:19:24;1.90;99.90
11152;DHT22;5630;49.342;10.802;2023-12-07T05:21:50;1.80;99.90
11152;DHT22;5630;49.342;10.802;2023-12-07T05:24:16;1.80;99.90
11152;DHT22;5630;49.342;10.802;2023-12-07T05:26:42;1.70;99.90
11152;DHT22;5630;49.342;10.802;2023-12-07T05:29:08;1.70;99.90
11152;DHT22;5630;49.342;10.802;2023-12-07T05:31:33;1.70;99.90
11152;DHT22;5630;49.342;10.802;2023-12-07T05:33:59;1.60;99.90
11152;DHT22;5630;49.342;10.802;2023-12-07T05:36:24;1.60;99.90
11152;DHT22;5630;49.342;10.802;2023-12-07T05:38:51;1.50;99.90
11152;DHT22;5630;49.342;10.802;2023-12-07T05:41:17;1.50;99.90
11152;DHT22;5630;49.342;10.802;2023-12-07T05:43:42;1.40;99.90
11152;DHT22;5630;49.342;10.802;2023-12-07T05:46:08;1.40;99.90
11152;DHT22;5630;49.342;10.802;2023-12-07T05:48:34;1.40;99.90
11152;DHT22;5630;49.342;10.802;2023-12-07T05:51:01;1.40;99.90
11152;DHT22;5630;49.342;10.802;2023-12-07T05:53:26;1.30;99.90
11152;DHT22;5630;49.342;10.802;2023-12-07T05:55:52;1.30;99.90
11152;DHT22;5630;49.342;10.802;2023-12-07T05:58:18;1.30;99.90
11152;DHT22;5630;49.342;10.802;2023-12-07T06:00:43;1.30;99.90
11152;DHT22;5630;49.342;10.802;2023-12-07T06:03:09;1.30;99.90
11152;DHT22;5630;49.342;10.802;2023-12-07T06:05:38;1.30;99.90
11152;DHT22;5630;49.342;10.802;2023-12-07T06:08:04;1.30;99.90
11152;DHT22;5630;49.342;10.802;2023-12-07T06:10:30;1.30;99.90
11152;DHT22;5630;49.342;10.802;2023-12-07T06:12:56;1.30;99.90
11152;DHT22;5630;49.342;10.802;2023-12-07T06:15:23;1.20;99.90
11152;DHT22;5630;49.342;10.802;2023-12-07T06:17:49;1.30;99.90
11152;DHT22;5630;49.342;10.802;2023-12-07T06:20:15;1.30;99.90
11152;DHT22;5630;49.342;10.802;2023-12-07T06:22:41;1.30;99.90
11152;DHT22;5630;49.342;10.802;2023-12-07T06:25:06;1.30;99.90
11152;DHT22;5630;49.342;10.802;2023-12-07T06:27:36;1.30;99.90
11152;DHT22;5630;49.342;10.802;2023-12-07T06:30:02;1.20;99.90
11152;DHT22;5630;49.342;10.802;2023-12-07T06:32:31;1.30;99.90
11152;DHT22;5630;49.342;10.802;2023-12-07T06:34:57;1.30;99.90
11152;DHT22;5630;49.342;10.802;2023-12-07T06:37:22;1.30;99.90
11152;DHT22;5630;49.342;10.802;2023-12-07T06:39:48;1.30;99.90
11152;DHT22;5630;49.342;10.802;2023-12-07T06:42:14;1.40;99.90
11152;DHT22;5630;49.342;10.802;2023-12-07T06:44:42;1.60;99.90
11152;DHT22;5630;49.342;10.802;2023-12-07T06:47:08;1.80;99.90
11152;DHT22;5630;49.342;10.802;2023-12-07T06:49:34;2.00;99.90
11152;DHT22;5630;49.342;10.802;2023-12-07T06:52:01;2.00;99.90
11152;DHT22;5630;49.342;10.802;2023-12-07T06:54:27;1.90;99.90
11152;DHT22;5630;49.342;10.802;2023-12-07T06:56:52;1.80;99.90
11152;DHT22;5630;49.342;10.802;2023-12-07T06:59:18;1.70;99.90
11152;DHT22;5630;49.342;10.802;2023-12-07T07:01:45;1.70;99.90
11152;DHT22;5630;49.342;10.802;2023-12-07T07:04:10;3.80;99.90
11152;DHT22;5630;49.342;10.802;2023-12-07T07:09:02;5.40;99.90
11152;DHT22;5630;49.342;10.802;2023-12-07T07:11:30;7.20;99.90
11152;DHT22;5630;49.342;10.802;2023-12-07T07:13:55;7.70;99.90
11152;DHT22;5630;49.342;10.802;2023-12-07T07:16:21;8.10;99.90
11152;DHT22;5630;49.342;10.802;2023-12-07T07:18:46;8.50;99.90
11152;DHT22;5630;49.342;10.802;2023-12-07T07:21:12;9.00;99.90
11152;DHT22;5630;49.342;10.802;2023-12-07T07:23:37;8.30;99.90
11152;DHT22;5630;49.342;10.802;2023-12-07T07:26:03;7.50;99.90
11152;DHT22;5630;49.342;10.802;2023-12-07T07:28:29;6.70;99.90
11152;DHT22;5630;49.342;10.802;2023-12-07T07:40:39;4.60;99.90
11152;DHT22;5630;49.342;10.802;2023-12-07T07:45:31;3.80;99.90
11152;DHT22;5630;49.342;10.802;2023-12-07T07:47:56;3.20;99.90
11152;DHT22;5630;49.342;10.802;2023-12-07T07:50:22;3.00;99.90
11152;DHT22;5630;49.342;10.802;2023-12-07T07:52:47;3.00;99.90
11152;DHT22;5630;49.342;10.802;2023-12-07T07:55:13;2.90;99.90
11152;DHT22;5630;49.342;10.802;2023-12-07T07:57:39;2.80;99.90
11152;DHT22;5630;49.342;10.802;2023-12-07T08:00:05;2.70;99.90
11152;DHT22;5630;49.342;10.802;2023-12-07T08:02:31;2.70;99.90
11152;DHT22;5630;49.342;10.802;2023-12-07T08:04:56;2.50;99.90
11152;DHT22;5630;49.342;10.802;2023-12-07T08:07:22;2.50;99.90
11152;DHT22;5630;49.342;10.802;2023-12-07T08:09:47;2.50;99.90
11152;DHT22;5630;49.342;10.802;2023-12-07T08:12:13;2.60;99.90
11152;DHT22;5630;49.342;10.802;2023-12-07T08:14:39;2.60;99.90
11152;DHT22;5630;49.342;10.802;2023-12-07T08:17:05;2.60;99.90
11152;DHT22;5630;49.342;10.802;2023-12-07T08:19:31;2.60;99.90
11152;DHT22;5630;49.342;10.802;2023-12-07T08:21:56;2.60;99.90
11152;DHT22;5630;49.342;10.802;2023-12-07T08:24:22;2.60;99.90
11152;DHT22;5630;49.342;10.802;2023-12-07T08:26:48;2.60;99.90
11152;DHT22;5630;49.342;10.802;2023-12-07T08:29:13;2.60;99.90
11152;DHT22;5630;49.342;10.802;2023-12-07T08:31:40;2.60;99.90
11152;DHT22;5630;49.342;10.802;2023-12-07T08:34:06;2.70;99.90
11152;DHT22;5630;49.342;10.802;2023-12-07T08:36:31;2.70;99.90
11152;DHT22;5630;49.342;10.802;2023-12-07T08:38:57;2.80;99.90
11152;DHT22;5630;49.342;10.802;2023-12-07T08:41:22;2.80;99.90
11152;DHT22;5630;49.342;10.802;2023-12-07T08:43:49;2.80;99.90
11152;DHT22;5630;49.342;10.802;2023-12-07T08:46:14;2.90;99.90
11152;DHT22;5630;49.342;10.802;2023-12-07T08:48:40;2.90;99.90
11152;DHT22;5630;49.342;10.802;2023-12-07T08:51:05;2.90;99.90
11152;DHT22;5630;49.342;10.802;2023-12-07T08:53:34;2.90;99.90
11152;DHT22;5630;49.342;10.802;2023-12-07T08:55:59;3.00;99.90
11152;DHT22;5630;49.342;10.802;2023-12-07T08:58:26;2.90;99.90
11152;DHT22;5630;49.342;10.802;2023-12-07T09:00:52;2.90;99.90
11152;DHT22;5630;49.342;10.802;2023-12-07T09:03:17;3.00;99.90
11152;DHT22;5630;49.342;10.802;2023-12-07T09:05:43;3.10;99.90
11152;DHT22;5630;49.342;10.802;2023-12-07T09:08:09;3.20;99.90
11152;DHT22;5630;49.342;10.802;2023-12-07T09:10:35;3.20;99.90
11152;DHT22;5630;49.342;10.802;2023-12-07T09:13:01;3.30;99.90
11152;DHT22;5630;49.342;10.802;2023-12-07T09:15:26;3.20;99.90
11152;DHT22;5630;49.342;10.802;2023-12-07T09:17:52;3.20;99.90
11152;DHT22;5630;49.342;10.802;2023-12-07T09:20:18;3.30;99.90
11152;DHT22;5630;49.342;10.802;2023-12-07T09:22:44;3.30;99.90
11152;DHT22;5630;49.342;10.802;2023-12-07T09:25:11;3.40;99.90
11152;DHT22;5630;49.342;10.802;2023-12-07T09:27:38;3.50;99.90
11152;DHT22;5630;49.342;10.802;2023-12-07T09:30:05;3.40;99.90
11152;DHT22;5630;49.342;10.802;2023-12-07T09:32:32;3.50;99.90
11152;DHT22;5630;49.342;10.802;2023-12-07T09:37:23;3.60;99.90
11152;DHT22;5630;49.342;10.802;2023-12-07T09:39:49;3.60;99.90
11152;DHT22;5630;49.342;10.802;2023-12-07T09:42:14;3.50;99.90
11152;DHT22;5630;49.342;10.802;2023-12-07T09:44:40;3.50;99.90
11152;DHT22;5630;49.342;10.802;2023-12-07T09:47:06;3.50;99.90
11152;DHT22;5630;49.342;10.802;2023-12-07T09:49:31;3.50;99.90
11152;DHT22;5630;49.342;10.802;2023-12-07T09:51:58;3.50;99.90
11152;DHT22;5630;49.342;10.802;2023-12-07T09:54:25;3.70;99.90
11152;DHT22;5630;49.342;10.802;2023-12-07T09:56:51;3.80;99.90
11152;DHT22;5630;49.342;10.802;2023-12-07T09:59:20;4.00;99.90
11152;DHT22;5630;49.342;10.802;2023-12-07T10:01:45;4.20;99.90
11152;DHT22;5630;49.342;10.802;2023-12-07T10:04:21;4.30;99.90
11152;DHT22;5630;49.342;10.802;2023-12-07T10:06:52;4.50;99.90
11152;DHT22;5630;49.342;10.802;2023-12-07T10:09:18;4.50;99.90
11152;DHT22;5630;49.342;10.802;2023-12-07T10:11:47;4.60;99.90
11152;DHT22;5630;49.342;10.802;2023-12-07T10:14:13;4.80;99.90
11152;DHT22;5630;49.342;10.802;2023-12-07T10:16:52;4.90;99.90
11152;DHT22;5630;49.342;10.802;2023-12-07T10:19:18;4.80;99.90
11152;DHT22;5630;49.342;10.802;2023-12-07T10:21:47;5.00;99.90
11152;DHT22;5630;49.342;10.802;2023-12-07T10:24:13;5.00;99.90
11152;DHT22;5630;49.342;10.802;2023-12-07T10:26:40;5.00;99.90
11152;DHT22;5630;49.342;10.802;2023-12-07T10:29:06;5.20;99.90
11152;DHT22;5630;49.342;10.802;2023-12-07T10:31:32;5.40;99.90
11152;DHT22;5630;49.342;10.802;2023-12-07T10:34:01;5.60;99.90
11152;DHT22;5630;49.342;10.802;2023-12-07T10:36:26;5.80;99.90
11152;DHT22;5630;49.342;10.802;2023-12-07T10:38:52;6.10;99.90
11152;DHT22;5630;49.342;10.802;2023-12-07T10:41:20;6.20;99.90
11152;DHT22;5630;49.342;10.802;2023-12-07T10:43:55;6.40;99.90
11152;DHT22;5630;49.342;10.802;2023-12-07T10:46:22;6.60;99.90
11152;DHT22;5630;49.342;10.802;2023-12-07T10:48:49;6.70;99.90
11152;DHT22;5630;49.342;10.802;2023-12-07T10:51:34;6.40;99.90
11152;DHT22;5630;49.342;10.802;2023-12-07T10:54:03;6.10;99.90
11152;DHT22;5630;49.342;10.802;2023-12-07T10:56:39;5.90;99.90
11152;DHT22;5630;49.342;10.802;2023-12-07T10:59:07;5.80;99.90
11152;DHT22;5630;49.342;10.802;2023-12-07T11:01:34;5.80;99.90
11152;DHT22;5630;49.342;10.802;2023-12-07T11:04:01;5.90;99.90
11152;DHT22;5630;49.342;10.802;2023-12-07T11:06:27;6.10;99.90
11152;DHT22;5630;49.342;10.802;2023-12-07T11:08:58;6.10;99.90
11152;DHT22;5630;49.342;10.802;2023-12-07T11:11:29;5.80;99.90
11152;DHT22;5630;49.342;10.802;2023-12-07T11:14:06;5.80;99.90
11152;DHT22;5630;49.342;10.802;2023-12-07T11:16:36;5.70;99.90
11152;DHT22;5630;49.342;10.802;2023-12-07T11:19:04;5.60;99.90
11152;DHT22;5630;49.342;10.802;2023-12-07T11:21:30;5.30;99.90
11152;DHT22;5630;49.342;10.802;2023-12-07T11:24:00;5.20;99.90
11152;DHT22;5630;49.342;10.802;2023-12-07T11:26:26;5.10;99.90
11152;DHT22;5630;49.342;10.802;2023-12-07T11:28:52;5.10;99.90
11152;DHT22;5630;49.342;10.802;2023-12-07T11:31:20;5.00;99.90
11152;DHT22;5630;49.342;10.802;2023-12-07T11:33:46;4.90;99.90
11152;DHT22;5630;49.342;10.802;2023-12-07T11:36:13;5.00;99.90
11152;DHT22;5630;49.342;10.802;2023-12-07T11:41:35;4.80;99.90
11152;DHT22;5630;49.342;10.802;2023-12-07T11:44:05;4.70;99.90
11152;DHT22;5630;49.342;10.802;2023-12-07T11:46:31;4.70;99.90
11152;DHT22;5630;49.342;10.802;2023-12-07T11:48:57;4.60;99.90
11152;DHT22;5630;49.342;10.802;2023-12-07T11:51:24;4.60;99.90
11152;DHT22;5630;49.342;10.802;2023-12-07T11:53:49;4.60;99.90
11152;DHT22;5630;49.342;10.802;2023-12-07T11:56:16;4.60;99.90
11152;DHT22;5630;49.342;10.802;2023-12-07T12:01:12;4.40;99.90
11152;DHT22;5630;49.342;10.802;2023-12-07T12:03:37;4.40;99.90
11152;DHT22;5630;49.342;10.802;2023-12-07T12:06:05;4.40;99.90
11152;DHT22;5630;49.342;10.802;2023-12-07T12:08:31;4.30;99.90
11152;DHT22;5630;49.342;10.802;2023-12-07T12:10:57;4.20;99.90
11152;DHT22;5630;49.342;10.802;2023-12-07T12:13:27;4.20;99.90
11152;DHT22;5630;49.342;10.802;2023-12-07T12:15:53;4.10;99.90
11152;DHT22;5630;49.342;10.802;2023-12-07T12:18:19;4.10;99.90
11152;DHT22;5630;49.342;10.802;2023-12-07T12:20:46;4.00;99.90
11152;DHT22;5630;49.342;10.802;2023-12-07T12:23:11;4.10;99.90
11152;DHT22;5630;49.342;10.802;2023-12-07T12:25:37;4.00;99.90
11152;DHT22;5630;49.342;10.802;2023-12-07T12:28:04;4.00;99.90
11152;DHT22;5630;49.342;10.802;2023-12-07T12:30:31;4.00;99.90
11152;DHT22;5630;49.342;10.802;2023-12-07T12:32:57;4.00;99.90
11152;DHT22;5630;49.342;10.802;2023-12-07T12:35:23;4.10;99.90
11152;DHT22;5630;49.342;10.802;2023-12-07T12:37:49;4.10;99.90
11152;DHT22;5630;49.342;10.802;2023-12-07T12:40:22;4.10;99.90
11152;DHT22;5630;49.342;10.802;2023-12-07T12:42:50;4.10;99.90
11152;DHT22;5630;49.342;10.802;2023-12-07T12:45:17;4.20;99.90
11152;DHT22;5630;49.342;10.802;2023-12-07T12:47:46;4.20;99.90
11152;DHT22;5630;49.342;10.802;2023-12-07T12:50:31;4.30;99.90
11152;DHT22;5630;49.342;10.802;2023-12-07T12:53:03;4.30;99.90
11152;DHT22;5630;49.342;10.802;2023-12-07T12:55:37;4.20;99.90
11152;DHT22;5630;49.342;10.802;2023-12-07T12:58:03;4.00;99.90
11152;DHT22;5630;49.342;10.802;2023-12-07T13:00:30;3.90;99.90
11152;DHT22;5630;49.342;10.802;2023-12-07T13:02:58;3.90;99.90
11152;DHT22;5630;49.342;10.802;2023-12-07T13:05:23;4.00;99.90
11152;DHT22;5630;49.342;10.802;2023-12-07T13:07:49;4.00;99.90
11152;DHT22;5630;49.342;10.802;2023-12-07T13:10:17;4.00;99.90
11152;DHT22;5630;49.342;10.802;2023-12-07T13:12:43;4.00;99.90
11152;DHT22;5630;49.342;10.802;2023-12-07T13:15:10;3.90;99.90
11152;DHT22;5630;49.342;10.802;2023-12-07T13:17:38;3.90;99.90
11152;DHT22;5630;49.342;10.802;2023-12-07T13:20:05;3.80;99.90
11152;DHT22;5630;49.342;10.802;2023-12-07T13:22:32;3.80;99.90
11152;DHT22;5630;49.342;10.802;2023-12-07T13:24:57;3.70;99.90
11152;DHT22;5630;49.342;10.802;2023-12-07T13:27:23;3.60;99.90
11152;DHT22;5630;49.342;10.802;2023-12-07T13:29:48;3.60;99.90
11152;DHT22;5630;49.342;10.802;2023-12-07T13:32:15;3.50;99.90
11152;DHT22;5630;49.342;10.802;2023-12-07T13:34:41;3.50;99.90
11152;DHT22;5630;49.342;10.802;2023-12-07T13:37:06;3.40;99.90
11152;DHT22;5630;49.342;10.802;2023-12-07T13:39:32;3.50;99.90
11152;DHT22;5630;49.342;10.802;2023-12-07T13:41:58;3.50;99.90
11152;DHT22;5630;49.342;10.802;2023-12-07T13:44:24;3.50;99.90
11152;DHT22;5630;49.342;10.802;2023-12-07T13:46:50;3.40;99.90
11152;DHT22;5630;49.342;10.802;2023-12-07T13:49:15;3.40;99.90
11152;DHT22;5630;49.342;10.802;2023-12-07T13:51:43;3.40;99.90
11152;DHT22;5630;49.342;10.802;2023-12-07T13:54:08;3.30;99.90
11152;DHT22;5630;49.342;10.802;2023-12-07T13:56:35;3.30;99.90
11152;DHT22;5630;49.342;10.802;2023-12-07T13:59:00;3.40;99.90
11152;DHT22;5630;49.342;10.802;2023-12-07T14:01:26;3.40;99.90
11152;DHT22;5630;49.342;10.802;2023-12-07T14:03:52;3.30;99.90
11152;DHT22;5630;49.342;10.802;2023-12-07T14:06:27;3.30;99.90
11152;DHT22;5630;49.342;10.802;2023-12-07T14:08:52;3.30;99.90
11152;DHT22;5630;49.342;10.802;2023-12-07T14:11:18;3.20;99.90
11152;DHT22;5630;49.342;10.802;2023-12-07T14:13:44;3.20;99.90
11152;DHT22;5630;49.342;10.802;2023-12-07T14:16:12;3.20;99.90
11152;DHT22;5630;49.342;10.802;2023-12-07T14:18:37;3.20;99.90
11152;DHT22;5630;49.342;10.802;2023-12-07T14:21:03;3.10;99.90
11152;DHT22;5630;49.342;10.802;2023-12-07T14:23:29;3.20;99.90
11152;DHT22;5630;49.342;10.802;2023-12-07T14:25:54;3.10;99.90
11152;DHT22;5630;49.342;10.802;2023-12-07T14:28:24;3.10;99.90
11152;DHT22;5630;49.342;10.802;2023-12-07T14:30:49;3.10;99.90
11152;DHT22;5630;49.342;10.802;2023-12-07T14:33:15;3.00;99.90
11152;DHT22;5630;49.342;10.802;2023-12-07T14:35:41;3.00;99.90
11152;DHT22;5630;49.342;10.802;2023-12-07T14:38:06;2.90;99.90
11152;DHT22;5630;49.342;10.802;2023-12-07T14:40:32;2.90;99.90
11152;DHT22;5630;49.342;10.802;2023-12-07T14:42:58;2.80;99.90
11152;DHT22;5630;49.342;10.802;2023-12-07T14:45:23;2.80;99.90
11152;DHT22;5630;49.342;10.802;2023-12-07T14:47:49;2.70;99.90
11152;DHT22;5630;49.342;10.802;2023-12-07T14:50:15;2.60;99.90
11152;DHT22;5630;49.342;10.802;2023-12-07T14:52:40;2.50;99.90
11152;DHT22;5630;49.342;10.802;2023-12-07T14:55:06;2.40;99.90
11152;DHT22;5630;49.342;10.802;2023-12-07T14:57:32;2.30;99.90
11152;DHT22;5630;49.342;10.802;2023-12-07T14:59:57;2.30;99.90
11152;DHT22;5630;49.342;10.802;2023-12-07T15:02:24;2.20;99.90
11152;DHT22;5630;49.342;10.802;2023-12-07T15:04:50;2.20;99.90
11152;DHT22;5630;49.342;10.802;2023-12-07T15:07:15;2.20;99.90
11152;DHT22;5630;49.342;10.802;2023-12-07T15:09:42;2.10;99.90
11152;DHT22;5630;49.342;10.802;2023-12-07T15:12:07;2.10;99.90
11152;DHT22;5630;49.342;10.802;2023-12-07T15:14:33;2.10;99.90
11152;DHT22;5630;49.342;10.802;2023-12-07T15:16:59;2.00;99.90
11152;DHT22;5630;49.342;10.802;2023-12-07T15:19:24;2.00;99.90
11152;DHT22;5630;49.342;10.802;2023-12-07T15:21:50;1.90;99.90
11152;DHT22;5630;49.342;10.802;2023-12-07T15:24:16;1.90;99.90
11152;DHT22;5630;49.342;10.802;2023-12-07T15:26:42;1.80;99.90
11152;DHT22;5630;49.342;10.802;2023-12-07T15:29:09;1.80;99.90
11152;DHT22;5630;49.342;10.802;2023-12-07T15:31:34;1.80;99.90
11152;DHT22;5630;49.342;10.802;2023-12-07T15:34:00;1.70;99.90
11152;DHT22;5630;49.342;10.802;2023-12-07T15:36:26;1.70;99.90
11152;DHT22;5630;49.342;10.802;2023-12-07T15:38:51;1.70;99.90
11152;DHT22;5630;49.342;10.802;2023-12-07T15:41:18;1.70;99.90
11152;DHT22;5630;49.342;10.802;2023-12-07T15:43:43;1.60;99.90
11152;DHT22;5630;49.342;10.802;2023-12-07T15:46:09;1.60;99.90
11152;DHT22;5630;49.342;10.802;2023-12-07T15:48:34;1.60;99.90
11152;DHT22;5630;49.342;10.802;2023-12-07T15:51:00;1.60;99.90
11152;DHT22;5630;49.342;10.802;2023-12-07T15:53:25;1.50;99.90
11152;DHT22;5630;49.342;10.802;2023-12-07T15:55:51;1.50;99.90
11152;DHT22;5630;49.342;10.802;2023-12-07T15:58:16;1.50;99.90
11152;DHT22;5630;49.342;10.802;2023-12-07T16:00:43;1.40;99.90
11152;DHT22;5630;49.342;10.802;2023-12-07T16:03:09;1.50;99.90